Main page
METAR-TAF:

METAR-TAF

Airports :

Gorna Oryahovitsa Airport

Veliko Tarnovo, Bulgaria

latitude: 43-09N, longitude: 025-36E, elevation: 87 m

Current weather observation

The report was made 9 minutes ago, at 05:30 UTC
Wind 4 kt from the East
Temperature 18°C
Humidity 88%
Pressure 1013 hPa
Visibility 10 km or more

METAR: LBGO 150530Z AUTO 09004KT 9999 NCD 18/16 Q1013 NOSIG

Time: 08:39 (05:39 UTC)

Forecast

The report was made 39 minutes ago, at 05:00 UTC
Forecast valid from 15 at 06 UTC to 16 at 06 UTC
Wind 4 kt from variable directions
Visibility 10 km or more
no clouds below 1500 m and no cumulonimbus
Becoming
from 15 at 09 UTC to 15 at 11 UTC
Wind 10 kt from the East/Northeast
Scattered clouds at a height of 5000 ft
Becoming
from 15 at 18 UTC to 15 at 20 UTC
Wind 4 kt from variable directions
Temporary
from 16 at 02 UTC to 16 at 06 UTC
Visibility: 5000 m
mist

TAF: LBGO 150500Z 1506/1606 VRB04KT CAVOK BECMG 1509/1511 07010KT SCT050 BECMG 1518/1520 VRB04KT TEMPO 1602/1606 5000 BR

Weather observations and forecasts of more than 4000 airports (METAR and TAF reports).

The available stations are represented by yellow and red dots on the map.

Hover mouse over dot to see the name of the station.

Then click to see weather observations and forecasts.

To change the map : click on the green buttons with a black cross to zoom in, on the green button with a dash to zoom out, or on the green arrows for adjacent maps.


METAR-TAF: